createdAt,value
2018-12-05T00:01:56.567Z,2.97
2018-12-05T00:04:26.225Z,2.30
2018-12-05T00:06:55.825Z,2.60
2018-12-05T00:09:25.428Z,2.93
2018-12-05T00:11:55.093Z,3.80
2018-12-05T00:14:24.703Z,2.73
2018-12-05T00:16:54.301Z,2.80
2018-12-05T00:19:23.866Z,3.03
2018-12-05T00:21:53.435Z,2.97
2018-12-05T00:24:23.091Z,2.67
2018-12-05T00:26:52.766Z,3.33
2018-12-05T00:29:22.342Z,3.43
2018-12-05T00:31:51.957Z,3.17
2018-12-05T00:34:21.619Z,2.57
2018-12-05T00:36:51.205Z,3.10
2018-12-05T00:39:20.809Z,2.80
2018-12-05T00:41:50.411Z,2.40
2018-12-05T00:44:20.076Z,2.53
2018-12-05T00:46:49.727Z,2.90
2018-12-05T00:49:19.452Z,3.13
2018-12-05T00:51:49.076Z,2.47
2018-12-05T00:54:18.669Z,2.80
2018-12-05T00:56:48.509Z,3.47
2018-12-05T00:59:18.143Z,2.50
2018-12-05T01:01:47.752Z,2.37
2018-12-05T01:04:17.381Z,3.10
2018-12-05T01:06:47.962Z,3.40
2018-12-05T01:09:18.611Z,3.43
2018-12-05T01:11:49.174Z,2.70
2018-12-05T01:14:19.614Z,2.87
2018-12-05T01:16:49.299Z,2.97
2018-12-05T01:19:18.904Z,2.97
2018-12-05T01:21:48.519Z,2.70
2018-12-05T01:24:18.259Z,2.60
2018-12-05T01:26:48.245Z,3.07
2018-12-05T01:29:17.843Z,2.57
2018-12-05T01:31:47.527Z,3.43
2018-12-05T01:34:17.145Z,2.67
2018-12-05T01:36:46.770Z,3.47
2018-12-05T01:39:16.351Z,2.93
2018-12-05T01:41:47.040Z,3.00
2018-12-05T01:44:16.639Z,2.80
2018-12-05T01:46:46.431Z,3.13
2018-12-05T01:49:16.057Z,2.87
2018-12-05T01:51:47.992Z,2.70
2018-12-05T01:54:17.615Z,2.73
2018-12-05T01:56:47.818Z,3.20
2018-12-05T01:59:17.640Z,3.03
2018-12-05T02:01:47.354Z,2.73
2018-12-05T02:04:16.935Z,2.13
2018-12-05T02:06:46.284Z,3.37
2018-12-05T02:09:15.577Z,2.70
2018-12-05T02:11:45.532Z,2.67
2018-12-05T02:14:14.881Z,2.23
2018-12-05T02:16:44.173Z,3.47
2018-12-05T02:19:13.572Z,2.73
2018-12-05T02:21:43.882Z,3.60
2018-12-05T02:24:13.223Z,3.13
2018-12-05T02:26:42.914Z,2.93
2018-12-05T02:29:12.373Z,3.17
2018-12-05T02:31:41.678Z,3.03
2018-12-05T02:34:11.189Z,3.37
2018-12-05T02:36:42.338Z,3.03
2018-12-05T02:39:11.707Z,2.60
2018-12-05T02:41:41.029Z,2.87
2018-12-05T02:44:10.980Z,3.10
2018-12-05T02:46:40.301Z,3.50
2018-12-05T02:49:09.581Z,2.47
2018-12-05T02:51:40.302Z,2.23
2018-12-05T02:54:09.623Z,2.20
2018-12-05T02:56:38.993Z,4.17
2018-12-05T02:59:08.326Z,2.37
2018-12-05T03:01:37.687Z,2.80
2018-12-05T03:04:07.039Z,2.67
2018-12-05T03:06:36.304Z,2.63
2018-12-05T03:09:07.940Z,3.47
2018-12-05T03:11:37.646Z,3.20
2018-12-05T03:14:06.982Z,2.60
2018-12-05T03:16:36.277Z,3.47
2018-12-05T03:19:05.605Z,2.77
2018-12-05T03:21:34.998Z,4.30
2018-12-05T03:24:04.392Z,3.03
2018-12-05T03:26:33.641Z,3.07
2018-12-05T03:29:02.887Z,3.27
2018-12-05T03:31:32.187Z,3.43
2018-12-05T03:34:01.473Z,2.70
2018-12-05T03:36:30.820Z,3.00
2018-12-05T03:39:00.223Z,2.80
2018-12-05T03:41:29.681Z,3.57
2018-12-05T03:43:58.985Z,2.60
2018-12-05T03:46:28.320Z,3.83
2018-12-05T03:48:57.576Z,3.17
2018-12-05T03:51:26.899Z,2.77
2018-12-05T03:53:56.329Z,2.83
2018-12-05T03:56:25.605Z,3.13
2018-12-05T03:58:54.877Z,3.80
2018-12-05T04:01:24.223Z,3.50
2018-12-05T04:03:53.518Z,3.87
2018-12-05T04:06:22.840Z,3.30
2018-12-05T04:08:52.184Z,2.90
2018-12-05T04:11:22.186Z,3.10
2018-12-05T04:13:51.491Z,3.37
2018-12-05T04:16:21.197Z,2.93
2018-12-05T04:18:50.468Z,2.60
2018-12-05T04:21:19.956Z,3.07
2018-12-05T04:23:49.223Z,3.37
2018-12-05T04:26:18.529Z,3.63
2018-12-05T04:28:47.813Z,3.23
2018-12-05T04:31:17.961Z,4.00
2018-12-05T04:33:47.299Z,3.30
2018-12-05T04:36:16.668Z,3.33
2018-12-05T04:38:46.888Z,3.33
2018-12-05T04:41:17.011Z,3.10
2018-12-05T04:43:46.341Z,3.43
2018-12-05T04:46:15.624Z,3.30
2018-12-05T04:48:45.226Z,2.73
2018-12-05T04:51:14.581Z,3.53
2018-12-05T04:53:44.231Z,3.30
2018-12-05T04:56:13.568Z,4.13
2018-12-05T04:58:42.890Z,3.30
2018-12-05T05:01:12.758Z,3.70
2018-12-05T05:03:43.258Z,3.33
2018-12-05T05:06:16.125Z,3.23
2018-12-05T05:08:47.993Z,3.70
2018-12-05T05:11:18.587Z,3.20
2018-12-05T05:13:47.934Z,3.40
2018-12-05T05:16:17.176Z,3.70
2018-12-05T05:18:46.417Z,2.77
2018-12-05T05:21:15.971Z,3.33
2018-12-05T05:23:46.196Z,3.77
2018-12-05T05:26:15.688Z,3.20
2018-12-05T05:28:44.976Z,3.80
2018-12-05T05:31:14.374Z,4.33
2018-12-05T05:33:43.784Z,3.73
2018-12-05T05:36:13.075Z,3.60
2018-12-05T05:38:42.344Z,3.73
2018-12-05T05:41:11.631Z,3.80
2018-12-05T05:43:40.911Z,3.83
2018-12-05T05:46:10.166Z,4.20
2018-12-05T05:48:40.733Z,3.57
2018-12-05T05:51:10.290Z,3.83
2018-12-05T05:53:39.809Z,3.17
2018-12-05T05:56:12.313Z,3.80
2018-12-05T05:58:41.978Z,3.57
2018-12-05T06:01:11.344Z,3.73
2018-12-05T06:03:41.900Z,4.77
2018-12-05T06:06:12.137Z,4.17
2018-12-05T06:08:41.839Z,3.80
2018-12-05T06:11:11.631Z,4.40
2018-12-05T06:13:41.267Z,4.83
2018-12-05T06:16:10.989Z,4.10
2018-12-05T06:18:41.634Z,5.03
2018-12-05T06:21:11.435Z,4.10
2018-12-05T06:23:41.169Z,4.20
2018-12-05T06:26:10.634Z,3.83
2018-12-05T06:28:40.244Z,4.67
2018-12-05T06:31:10.728Z,4.27
2018-12-05T06:33:41.847Z,4.50
2018-12-05T06:36:11.427Z,4.23
2018-12-05T06:38:40.890Z,4.43
2018-12-05T06:41:12.185Z,4.03
2018-12-05T06:43:41.717Z,4.77
2018-12-05T06:46:11.238Z,3.73
2018-12-05T06:48:41.432Z,3.70
2018-12-05T06:51:11.026Z,4.90
2018-12-05T06:53:40.659Z,4.27
2018-12-05T06:56:10.038Z,4.73
2018-12-05T06:58:39.586Z,5.20
2018-12-05T07:01:08.994Z,4.57
2018-12-05T07:03:39.053Z,4.37
2018-12-05T07:06:08.483Z,4.40
2018-12-05T07:08:38.189Z,4.67
2018-12-05T07:11:07.611Z,4.30
2018-12-05T07:13:37.225Z,4.43
2018-12-05T07:16:06.799Z,5.93
2018-12-05T07:18:36.164Z,3.80
2018-12-05T07:21:05.743Z,5.27
2018-12-05T07:23:35.537Z,4.30
2018-12-05T07:26:05.068Z,4.53
2018-12-05T07:28:34.837Z,4.93
2018-12-05T07:31:04.514Z,4.53
2018-12-05T07:33:34.325Z,3.90
2018-12-05T07:36:03.877Z,4.90
2018-12-05T07:38:33.533Z,4.23
2018-12-05T07:41:03.104Z,4.70
2018-12-05T07:43:32.650Z,4.63
2018-12-05T07:46:02.337Z,4.83
2018-12-05T07:48:31.929Z,4.13
2018-12-05T07:51:01.433Z,4.70
2018-12-05T07:53:30.952Z,4.33
2018-12-05T07:56:00.551Z,5.23
2018-12-05T07:58:30.051Z,5.00
2018-12-05T08:00:59.611Z,5.03
2018-12-05T08:03:29.193Z,5.60
2018-12-05T08:05:58.650Z,4.77
2018-12-05T08:08:28.168Z,4.90
2018-12-05T08:10:57.668Z,6.23
2018-12-05T08:13:27.497Z,4.63
2018-12-05T08:15:57.138Z,5.37
2018-12-05T08:18:26.697Z,4.63
2018-12-05T08:20:56.356Z,5.57
2018-12-05T08:23:25.778Z,6.47
2018-12-05T08:25:55.391Z,5.00
2018-12-05T08:28:24.803Z,5.77
2018-12-05T08:30:54.293Z,5.40
2018-12-05T08:33:23.721Z,6.00
2018-12-05T08:35:53.244Z,5.93
2018-12-05T08:38:22.681Z,5.40
2018-12-05T08:40:52.128Z,5.23
2018-12-05T08:43:21.530Z,6.17
2018-12-05T08:45:50.924Z,5.57
2018-12-05T08:48:20.663Z,6.00
2018-12-05T08:50:50.670Z,4.80
2018-12-05T08:53:20.177Z,6.57
2018-12-05T08:55:49.721Z,5.90
2018-12-05T08:58:19.096Z,6.23
2018-12-05T09:00:48.980Z,6.10
2018-12-05T09:03:18.294Z,5.50
2018-12-05T09:05:48.247Z,5.30
2018-12-05T09:08:17.548Z,6.37
2018-12-05T09:10:46.877Z,5.63
2018-12-05T09:13:16.205Z,5.07
2018-12-05T09:15:45.728Z,5.37
2018-12-05T09:18:15.058Z,5.27
2018-12-05T09:20:45.012Z,6.30
2018-12-05T09:23:14.318Z,5.60
2018-12-05T09:25:44.177Z,5.33
2018-12-05T09:28:13.506Z,6.10
2018-12-05T09:30:44.191Z,5.57
2018-12-05T09:33:13.495Z,5.43
2018-12-05T09:35:43.180Z,5.17
2018-12-05T09:38:12.632Z,5.53
2018-12-05T09:40:42.229Z,5.57
2018-12-05T09:43:11.576Z,6.03
2018-12-05T09:45:41.834Z,6.07
2018-12-05T09:48:11.142Z,6.33
2018-12-05T09:50:40.422Z,6.00
2018-12-05T09:53:09.713Z,5.53
2018-12-05T09:55:39.041Z,6.00
2018-12-05T09:58:08.355Z,6.00
2018-12-05T10:00:38.778Z,6.10
2018-12-05T10:03:08.095Z,5.73
2018-12-05T10:05:37.449Z,6.27
2018-12-05T10:08:06.714Z,5.57
2018-12-05T10:10:36.028Z,6.07
2018-12-05T10:13:05.383Z,6.07
2018-12-05T10:15:34.658Z,6.37
2018-12-05T10:18:04.111Z,6.30
2018-12-05T10:20:33.409Z,5.73
2018-12-05T10:23:02.682Z,6.30
2018-12-05T10:25:32.054Z,6.07
2018-12-05T10:28:01.367Z,4.93
2018-12-05T10:30:30.675Z,5.97
2018-12-05T10:32:59.969Z,5.83
2018-12-05T10:35:29.485Z,4.80
2018-12-05T10:37:58.771Z,5.13
2018-12-05T10:40:28.105Z,5.17
2018-12-05T10:42:57.483Z,5.03
2018-12-05T10:45:26.827Z,5.03
2018-12-05T10:47:56.185Z,4.97
2018-12-05T10:50:25.707Z,4.13
2018-12-05T10:52:55.024Z,5.03
2018-12-05T10:55:24.392Z,5.07
2018-12-05T10:57:53.718Z,4.87
2018-12-05T11:01:28.782Z,5.13
2018-12-05T11:03:58.069Z,4.87
2018-12-05T11:06:32.571Z,5.57
2018-12-05T11:09:06.972Z,4.23
2018-12-05T11:11:41.482Z,5.27
2018-12-05T11:14:16.030Z,5.13
2018-12-05T11:16:50.839Z,4.53
2018-12-05T11:19:25.503Z,4.70
2018-12-05T11:21:59.903Z,4.40
2018-12-05T11:24:37.707Z,4.07
2018-12-05T11:27:07.017Z,4.70
2018-12-05T11:29:36.318Z,5.17
2018-12-05T11:32:05.612Z,5.03
2018-12-05T11:34:34.907Z,4.07
2018-12-05T11:37:04.237Z,4.33
2018-12-05T11:39:33.489Z,4.37
2018-12-05T11:42:02.877Z,4.20
2018-12-05T11:44:32.276Z,3.90
2018-12-05T11:47:01.584Z,4.40
2018-12-05T11:49:30.865Z,4.03
2018-12-05T11:52:00.147Z,4.20
2018-12-05T11:54:29.466Z,4.97
2018-12-05T11:56:58.794Z,4.23
2018-12-05T11:59:28.068Z,5.10
2018-12-05T12:01:57.389Z,3.77
2018-12-05T12:04:26.733Z,4.53
2018-12-05T12:06:55.996Z,4.67
2018-12-05T12:09:25.311Z,4.43
2018-12-05T12:11:55.207Z,4.87
2018-12-05T12:14:24.526Z,4.03
2018-12-05T12:16:54.047Z,4.83
2018-12-05T12:19:23.403Z,4.50
2018-12-05T12:21:53.445Z,4.73
2018-12-05T12:24:22.924Z,4.33
2018-12-05T12:26:53.070Z,5.03
2018-12-05T12:29:22.391Z,4.60
2018-12-05T12:31:52.073Z,3.77
2018-12-05T12:34:21.440Z,4.20
2018-12-05T12:36:50.920Z,4.40
2018-12-05T12:39:20.176Z,3.73
2018-12-05T12:41:49.993Z,4.67
2018-12-05T12:44:19.271Z,4.53
2018-12-05T12:46:48.569Z,4.20
2018-12-05T12:49:17.880Z,4.47
2018-12-05T12:51:47.166Z,3.80
2018-12-05T12:54:16.451Z,4.23
2018-12-05T12:56:46.371Z,4.30
2018-12-05T12:59:15.788Z,4.60
2018-12-05T13:01:45.119Z,4.40
2018-12-05T13:04:14.429Z,3.97
2018-12-05T13:06:43.917Z,4.80
2018-12-05T13:09:13.207Z,4.93
2018-12-05T13:11:42.540Z,5.30
2018-12-05T13:14:11.832Z,5.17
2018-12-05T13:16:41.207Z,4.67
2018-12-05T13:19:10.504Z,4.70
2018-12-05T13:21:41.433Z,5.43
2018-12-05T13:24:10.745Z,5.53
2018-12-05T13:26:40.165Z,5.13
2018-12-05T13:29:09.503Z,5.57
2018-12-05T13:31:38.829Z,5.80
2018-12-05T13:34:08.181Z,5.37
2018-12-05T13:36:38.508Z,4.70
2018-12-05T13:39:08.878Z,5.60
2018-12-05T13:41:38.604Z,5.47
2018-12-05T13:44:08.008Z,4.47
2018-12-05T13:46:37.451Z,5.83
2018-12-05T13:49:06.811Z,5.40
2018-12-05T13:51:36.205Z,4.93
2018-12-05T13:54:05.707Z,5.83
2018-12-05T13:56:35.056Z,4.67
2018-12-05T13:59:04.573Z,5.97
2018-12-05T14:01:33.882Z,5.67
2018-12-05T14:04:03.151Z,5.13
2018-12-05T14:06:32.518Z,6.13
2018-12-05T14:09:01.778Z,5.77
2018-12-05T14:11:31.876Z,7.33
2018-12-05T14:14:01.383Z,6.70
2018-12-05T14:16:30.670Z,6.63
2018-12-05T14:19:00.223Z,6.53
2018-12-05T14:21:29.596Z,5.37
2018-12-05T14:23:59.538Z,5.47
2018-12-05T14:26:28.973Z,5.27
2018-12-05T14:28:58.940Z,5.33
2018-12-05T14:31:28.231Z,4.53
2018-12-05T14:33:58.228Z,4.93
2018-12-05T14:36:27.479Z,4.30
2018-12-05T14:38:56.937Z,5.47
2018-12-05T14:41:26.207Z,4.93
2018-12-05T14:43:55.525Z,5.30
2018-12-05T14:46:24.811Z,4.73
2018-12-05T14:48:54.330Z,4.77
2018-12-05T14:51:23.642Z,4.67
2018-12-05T14:53:53.354Z,5.70
2018-12-05T14:56:22.674Z,5.20
2018-12-05T14:58:51.928Z,6.37
2018-12-05T15:01:21.265Z,5.80
2018-12-05T15:03:50.560Z,5.20
2018-12-05T15:06:19.958Z,5.63
2018-12-05T15:08:49.813Z,5.27
2018-12-05T15:11:19.547Z,5.40
2018-12-05T15:13:48.853Z,5.07
2018-12-05T15:16:18.170Z,6.03
2018-12-05T15:18:47.448Z,5.83
2018-12-05T15:21:17.365Z,5.93
2018-12-05T15:23:47.058Z,6.80
2018-12-05T15:26:16.355Z,6.70
2018-12-05T15:28:45.612Z,5.87
2018-12-05T15:31:15.610Z,6.57
2018-12-05T15:33:45.109Z,8.77
2018-12-05T15:36:14.405Z,10.07
2018-12-05T15:38:43.680Z,10.77
2018-12-05T15:41:14.188Z,10.43
2018-12-05T15:43:43.525Z,8.60
2018-12-05T15:46:12.787Z,9.43
2018-12-05T15:48:42.770Z,8.37
2018-12-05T15:51:12.130Z,7.53
2018-12-05T15:53:41.457Z,7.00
2018-12-05T15:56:10.888Z,7.30
2018-12-05T15:58:40.321Z,7.87
2018-12-05T16:01:10.059Z,6.47
2018-12-05T16:03:43.174Z,6.93
2018-12-05T16:06:11.488Z,6.13
2018-12-05T16:08:41.139Z,7.13
2018-12-05T16:11:11.196Z,6.70
2018-12-05T16:13:41.197Z,6.27
2018-12-05T16:16:11.297Z,5.77
2018-12-05T16:18:41.802Z,6.80
2018-12-05T16:21:11.218Z,5.73
2018-12-05T16:23:40.837Z,6.40
2018-12-05T16:26:10.894Z,7.23
2018-12-05T16:28:40.615Z,6.70
2018-12-05T16:31:10.256Z,7.37
2018-12-05T16:33:40.498Z,6.83
2018-12-05T16:36:11.351Z,8.40
2018-12-05T16:38:41.341Z,11.87
2018-12-05T16:41:11.826Z,17.13
2018-12-05T16:43:41.630Z,16.10
2018-12-05T16:46:21.412Z,35.63
2018-12-05T16:48:51.532Z,21.07
2018-12-05T16:51:21.248Z,30.93
2018-12-05T16:53:51.449Z,52.10
2018-12-05T16:56:21.098Z,31.87
2018-12-05T16:58:50.763Z,14.97
2018-12-05T17:01:21.038Z,8.10
2018-12-05T17:03:50.824Z,12.23
2018-12-05T17:06:20.692Z,27.37
2018-12-05T17:08:51.292Z,49.57
2018-12-05T17:11:21.572Z,72.20
2018-12-05T17:13:51.318Z,57.60
2018-12-05T17:16:21.120Z,35.30
2018-12-05T17:18:50.870Z,24.40
2018-12-05T17:21:21.255Z,16.93
2018-12-05T17:23:52.142Z,28.13
2018-12-05T17:26:25.385Z,21.07
2018-12-05T17:28:55.099Z,14.77
2018-12-05T17:31:25.052Z,15.97
2018-12-05T17:33:58.167Z,16.23
2018-12-05T17:36:27.858Z,18.17
2018-12-05T17:38:57.496Z,15.53
2018-12-05T17:41:27.759Z,14.07
2018-12-05T17:43:57.419Z,7.33
2018-12-05T17:46:27.246Z,5.87
2018-12-05T17:48:56.880Z,6.10
2018-12-05T17:51:26.579Z,7.17
2018-12-05T17:53:56.177Z,6.23
2018-12-05T17:56:25.882Z,6.87
2018-12-05T17:58:55.573Z,7.30
2018-12-05T18:01:25.514Z,7.30
2018-12-05T18:04:00.842Z,6.67
2018-12-05T18:06:30.708Z,7.23
2018-12-05T18:09:00.480Z,6.30
2018-12-05T18:11:30.703Z,7.03
2018-12-05T18:14:00.442Z,7.43
2018-12-05T18:16:30.356Z,7.27
2018-12-05T18:19:00.081Z,7.10
2018-12-05T18:21:29.773Z,10.60
2018-12-05T18:23:59.652Z,15.57
2018-12-05T18:30:22.610Z,15.20
2018-12-05T18:32:58.341Z,15.63
2018-12-05T18:35:28.447Z,17.30
2018-12-05T18:37:58.864Z,9.37
2018-12-05T18:40:28.830Z,10.40
2018-12-05T18:42:58.733Z,9.67
2018-12-05T18:45:28.648Z,9.03
2018-12-05T18:47:58.732Z,9.80
2018-12-05T18:50:28.727Z,11.13
2018-12-05T18:52:58.853Z,10.27
2018-12-05T18:55:28.825Z,11.10
2018-12-05T18:57:58.609Z,11.33
2018-12-05T19:00:28.378Z,11.67
2018-12-05T19:02:58.548Z,11.87
2018-12-05T19:05:28.678Z,11.17
2018-12-05T19:07:58.705Z,12.63
2018-12-05T19:10:28.549Z,12.77
2018-12-05T19:12:58.539Z,12.00
2018-12-05T19:15:28.269Z,14.33
2018-12-05T19:17:57.983Z,15.43
2018-12-05T19:20:27.927Z,14.83
2018-12-05T19:22:57.677Z,14.87
2018-12-05T19:25:27.342Z,16.00
2018-12-05T19:27:57.020Z,16.87
2018-12-05T19:30:26.819Z,18.67
2018-12-05T19:32:56.512Z,18.97
2018-12-05T19:35:28.213Z,19.00
2018-12-05T19:38:02.744Z,19.47
2018-12-05T19:40:32.365Z,18.23
2018-12-05T19:43:02.548Z,20.00
2018-12-05T19:45:32.177Z,18.43
2018-12-05T19:48:02.003Z,18.97
2018-12-05T19:50:31.757Z,19.37
2018-12-05T19:53:01.462Z,19.63
2018-12-05T19:55:31.154Z,19.23
2018-12-05T19:58:00.750Z,20.03
2018-12-05T20:00:30.499Z,19.57
2018-12-05T20:03:00.159Z,19.97
2018-12-05T20:05:29.893Z,19.97
2018-12-05T20:07:59.517Z,19.53
2018-12-05T20:10:29.380Z,17.47
2018-12-05T20:12:59.018Z,17.90
2018-12-05T20:15:28.773Z,15.07
2018-12-05T20:17:58.597Z,15.07
2018-12-05T20:20:28.359Z,14.63
2018-12-05T20:22:58.104Z,13.90
2018-12-05T20:25:27.882Z,18.80
2018-12-05T20:28:00.974Z,18.90
2018-12-05T20:30:30.671Z,15.87
2018-12-05T20:33:00.648Z,15.43
2018-12-05T20:35:30.253Z,16.13
2018-12-05T20:37:59.916Z,16.67
2018-12-05T20:40:29.711Z,16.47
2018-12-05T20:42:59.404Z,15.33
2018-12-05T20:45:30.175Z,15.13
2018-12-05T20:48:01.024Z,15.57
2018-12-05T20:50:32.147Z,17.00
2018-12-05T20:53:01.850Z,14.83
2018-12-05T20:55:31.614Z,15.03
2018-12-05T20:58:01.901Z,16.23
2018-12-05T21:00:32.015Z,16.00
2018-12-05T21:03:02.016Z,15.97
2018-12-05T21:05:32.132Z,14.60
2018-12-05T21:08:02.270Z,15.93
2018-12-05T21:10:32.190Z,14.43
2018-12-05T21:13:03.659Z,16.17
2018-12-05T21:15:33.673Z,17.17
2018-12-05T21:18:05.099Z,14.37
2018-12-05T21:20:36.869Z,14.33
2018-12-05T21:23:06.589Z,15.20
2018-12-05T21:25:38.020Z,15.17
2018-12-05T21:28:08.184Z,15.77
2018-12-05T21:30:39.217Z,15.83
2018-12-05T21:33:09.000Z,15.73
2018-12-05T21:35:38.590Z,16.00
2018-12-05T21:38:08.523Z,17.80
2018-12-05T21:40:38.405Z,16.73
2018-12-05T21:43:08.796Z,17.63
2018-12-05T21:45:40.730Z,16.80
2018-12-05T21:48:12.238Z,17.13
2018-12-05T21:50:43.726Z,18.20
2018-12-05T21:53:13.782Z,16.20
2018-12-05T21:55:43.638Z,15.63
2018-12-05T21:58:13.387Z,17.80
2018-12-05T22:00:44.867Z,15.73
2018-12-05T22:03:14.481Z,18.03
2018-12-05T22:05:44.428Z,17.63
2018-12-05T22:08:14.109Z,17.07
2018-12-05T22:10:43.793Z,17.43
2018-12-05T22:13:13.496Z,16.80
2018-12-05T22:15:43.930Z,16.83
2018-12-05T22:18:13.654Z,16.27
2018-12-05T22:20:43.244Z,16.37
2018-12-05T22:23:12.916Z,16.43
2018-12-05T22:25:42.510Z,15.03
2018-12-05T22:28:12.103Z,15.27
2018-12-05T22:30:43.337Z,15.00
2018-12-05T22:33:12.986Z,16.83
2018-12-05T22:35:42.645Z,15.67
2018-12-05T22:38:12.271Z,15.60
2018-12-05T22:40:41.941Z,15.37
2018-12-05T22:43:11.679Z,15.80
2018-12-05T22:45:43.263Z,14.83
2018-12-05T22:48:14.015Z,14.00
2018-12-05T22:50:49.042Z,14.60
2018-12-05T22:53:24.700Z,13.73
2018-12-05T22:55:54.502Z,13.87
2018-12-05T22:58:24.354Z,13.97
2018-12-05T23:01:01.506Z,12.73
2018-12-05T23:03:32.716Z,13.93
2018-12-05T23:06:10.757Z,13.13
2018-12-05T23:08:47.770Z,12.87
2018-12-05T23:11:22.950Z,12.87
2018-12-05T23:13:52.847Z,14.70
2018-12-05T23:16:22.691Z,12.50
2018-12-05T23:18:52.367Z,11.63
2018-12-05T23:21:21.991Z,13.47
2018-12-05T23:23:52.241Z,13.07
2018-12-05T23:26:21.832Z,12.50
2018-12-05T23:28:51.466Z,12.83
2018-12-05T23:31:21.665Z,13.33
2018-12-05T23:33:51.274Z,12.60
2018-12-05T23:36:20.921Z,12.57
2018-12-05T23:38:51.775Z,12.50
2018-12-05T23:41:21.525Z,11.50
2018-12-05T23:43:51.133Z,13.33
2018-12-05T23:46:20.749Z,12.47
2018-12-05T23:48:51.014Z,11.87
2018-12-05T23:51:21.086Z,12.60
2018-12-05T23:53:51.685Z,12.57
2018-12-05T23:56:21.709Z,13.00
2018-12-05T23:58:51.366Z,13.23
